Impacts TAF Board
For situational awareness. Not to be used for flight planning purposes.
IDs:

KSRQ - Sarasota-Bradenton I, FL, US

Issued at 1124 UTC 17 Sep 2019
Updated at 1230 UTC 17 Sep 2019
Potential Impact None Slight Moderate High
Time<<18/01Z 18/02Z 18/03Z 18/04Z 18/05Z 18/06Z 18/07Z 18/08Z 18/09Z 18/10Z 18/11Z 18/12Z 18/13Z>>
Type PRVL PRVL PRVL PRVL PRVL PRVL PRVL PRVL PRVL PRVL PRVL
VIS >6 >6 >6 >6 >6 >6 >6 >6 >6 >6 >6
CIG -- -- -- -- -- -- -- -- -- -- --
Cover FEW FEW FEW FEW FEW FEW FEW FEW FEW FEW FEW
FltCat VFR VFR VFR VFR VFR VFR VFR VFR VFR VFR VFR
WX -- -- -- -- -- -- -- -- -- -- --
WDir 30 30 30 30 30 30 30 30 30 30 30
WSpd 5 5 5 5 5 5 5 5 5 5 5
WGst -- -- -- -- -- -- -- -- -- -- --
Raw TAF
KSRQ 171124Z 1712/1812 VRB03KT P6SM FEW250
  FM171500 32012KT P6SM FEW050 FEW250
  FM180100 03005KT P6SM FEW250


METAR Board
Radar Display
Forecast Discussion
For situational awareness. Not to be used for flight planning purposes.